Time;durP1;ratioP1;P1;durP2;ratioP2;P2;SDS_P1;SDS_P2;PMS_P1;PMS_P2;Temp;Humidity;BMP_temperature;BMP_pressure;BME280_temperature;BME280_humidity;BME280_pressure;Samples;Min_cycle;Max_cycle;Signal;HPM_P1;HPM_P2
2022/08/17 00:00:41;;;;;;;;;16.25;15.00;;;;;22.35;68.81;100596.69;5060882;28;45299;-63
2022/08/17 00:03:25;;;;;;;;;16.75;14.75;;;;;22.34;69.02;100586.16;5061029;28;45409;-63
2022/08/17 00:06:15;;;;;;;;;18.75;15.50;;;;;22.32;69.25;100585.50;5059927;28;45594;-63
2022/08/17 00:08:47;;;;;;;;;16.25;14.75;;;;;22.33;68.99;100577.25;5060814;28;46106;-63
2022/08/17 00:11:19;;;;;;;;;16.50;14.25;;;;;22.38;68.91;100568.72;5060772;28;45247;-63
2022/08/17 00:13:48;;;;;;;;;14.00;13.25;;;;;22.42;69.01;100570.03;5060724;28;45175;-63
2022/08/17 00:16:21;;;;;;;;;17.75;14.50;;;;;22.45;68.52;100567.84;5060773;28;45275;-63
2022/08/17 00:18:47;;;;;;;;;16.75;15.00;;;;;22.49;68.37;100561.09;5060756;27;46246;-63
2022/08/17 00:21:15;;;;;;;;;14.00;14.00;;;;;22.52;68.41;100557.25;5063147;28;45460;-63
2022/08/17 00:23:42;;;;;;;;;16.75;15.25;;;;;22.53;68.26;100557.09;5067312;28;45368;-64
2022/08/17 00:26:09;;;;;;;;;18.25;15.25;;;;;22.54;68.45;100557.91;5048672;28;45311;-63
2022/08/17 00:28:35;;;;;;;;;18.75;16.00;;;;;22.52;68.58;100559.94;5047383;28;45434;-63
2022/08/17 00:31:01;;;;;;;;;14.75;14.00;;;;;22.48;68.53;100556.75;5047035;28;45236;-63
2022/08/17 00:33:29;;;;;;;;;18.75;15.00;;;;;22.47;68.39;100556.94;5047208;28;45473;-63
2022/08/17 00:35:57;;;;;;;;;18.00;15.50;;;;;22.45;68.54;100564.34;5047117;28;45325;-63
2022/08/17 00:38:24;;;;;;;;;18.25;16.00;;;;;22.44;68.54;100551.91;5047111;28;45392;-63
2022/08/17 00:40:53;;;;;;;;;17.50;16.25;;;;;22.43;68.43;100556.41;5065584;28;45387;-63
2022/08/17 00:43:26;;;;;;;;;23.00;16.00;;;;;22.44;68.82;100549.25;5067543;28;45563;-63
2022/08/17 00:45:53;;;;;;;;;18.25;16.50;;;;;22.46;68.56;100548.03;5067272;28;45178;-63
2022/08/17 00:48:19;;;;;;;;;17.25;16.25;;;;;22.46;68.96;100536.47;5067324;28;45307;-63
2022/08/17 00:50:56;;;;;;;;;22.25;16.75;;;;;22.47;68.81;100543.50;5067237;28;45381;-63
2022/08/17 00:53:23;;;;;;;;;17.75;17.00;;;;;22.48;69.01;100543.34;5067301;28;45348;-63
2022/08/17 00:55:49;;;;;;;;;18.00;17.50;;;;;22.50;69.09;100538.63;5067321;28;46244;-63
2022/08/17 00:58:14;;;;;;;;;21.00;17.50;;;;;22.51;68.71;100542.13;5062422;28;46753;-63
2022/08/17 01:00:43;;;;;;;;;19.00;18.50;;;;;22.51;68.82;100536.78;5056966;28;45624;-63
2022/08/17 01:03:18;;;;;;;;;17.50;17.50;;;;;22.49;68.73;100538.81;5067209;28;45283;-63
2022/08/17 01:05:45;;;;;;;;;22.25;19.25;;;;;22.46;69.13;100547.22;5065859;28;45221;-63
2022/08/17 01:08:14;;;;;;;;;20.75;19.75;;;;;22.42;68.94;100549.38;5066779;28;46230;-63
2022/08/17 01:10:48;;;;;;;;;19.75;16.25;;;;;22.39;68.81;100552.44;5067242;28;45252;-63
2022/08/17 01:13:15;;;;;;;;;18.75;17.00;;;;;22.41;69.18;100557.63;5067252;28;45444;-63
2022/08/17 01:15:48;;;;;;;;;16.25;15.00;;;;;22.40;68.85;100548.72;5066932;28;45398;-63
2022/08/17 01:18:13;;;;;;;;;20.25;18.25;;;;;22.42;68.93;100543.19;5066950;28;45271;-63
2022/08/17 01:20:52;;;;;;;;;15.75;14.25;;;;;22.39;68.90;100544.38;5066832;28;45189;-63
2022/08/17 01:23:19;;;;;;;;;15.25;15.25;;;;;22.37;69.23;100548.25;5066693;28;45248;-63
2022/08/17 01:25:49;;;;;;;;;19.25;15.50;;;;;22.37;68.75;100556.31;5065411;28;45489;-63
2022/08/17 01:28:15;;;;;;;;;14.75;12.50;;;;;22.34;68.97;100552.09;5066773;28;45388;-63
2022/08/17 01:30:41;;;;;;;;;19.00;16.50;;;;;22.37;68.80;100551.78;5066703;28;45161;-62
2022/08/17 01:33:10;;;;;;;;;15.50;13.75;;;;;22.38;68.66;100548.06;5064491;28;45343;-62
2022/08/17 01:35:36;;;;;;;;;18.25;14.75;;;;;22.36;68.78;100547.41;5063441;28;45354;-62
2022/08/17 01:38:02;;;;;;;;;14.50;13.00;;;;;22.39;68.83;100552.44;5063090;28;46068;-63
2022/08/17 01:40:34;;;;;;;;;17.50;16.00;;;;;22.41;68.83;100555.75;5063218;28;45315;-63
2022/08/17 01:43:06;;;;;;;;;16.25;15.00;;;;;22.42;68.66;100546.69;5063301;28;45362;-63
2022/08/17 01:45:37;;;;;;;;;16.75;15.25;;;;;22.44;68.44;100550.06;5063343;28;45265;-63
2022/08/17 01:48:03;;;;;;;;;18.50;17.00;;;;;22.48;68.46;100553.22;5061837;28;45556;-63
2022/08/17 01:50:42;;;;;;;;;16.50;15.00;;;;;22.47;68.29;100551.56;5063115;28;45369;-62
2022/08/17 01:53:15;;;;;;;;;18.00;17.00;;;;;22.49;68.63;100549.53;5063190;28;45301;-63
2022/08/17 01:56:00;;;;;;;;;16.00;14.50;;;;;22.49;68.54;100546.84;5063364;28;45231;-63
2022/08/17 01:58:25;;;;;;;;;16.25;14.25;;;;;22.45;68.40;100548.22;5062984;28;46208;-63
2022/08/17 02:00:53;;;;;;;;;14.75;14.75;;;;;22.42;68.76;100551.22;5062905;28;45327;-63
2022/08/17 02:03:21;;;;;;;;;20.50;18.50;;;;;22.37;68.95;100561.66;5063199;28;45773;-63
2022/08/17 02:05:48;;;;;;;;;21.25;15.50;;;;;22.33;68.53;100568.38;5063096;28;45411;-63
2022/08/17 02:08:19;;;;;;;;;20.50;18.00;;;;;22.29;68.45;100573.25;5062482;28;45356;-63
2022/08/17 02:10:45;;;;;;;;;20.25;16.50;;;;;22.27;68.30;100572.56;5062870;28;45423;-63
2022/08/17 02:13:12;;;;;;;;;18.75;17.25;;;;;22.26;68.80;100569.03;5062742;28;45432;-63
2022/08/17 02:15:37;;;;;;;;;18.25;17.25;;;;;22.27;68.74;100565.34;5062856;28;45328;-62
2022/08/17 02:18:04;;;;;;;;;23.25;17.75;;;;;22.27;68.48;100569.88;5062695;28;46106;-62
2022/08/17 02:20:31;;;;;;;;;21.75;18.75;;;;;22.30;68.65;100574.94;5061676;28;45251;-63
2022/08/17 02:23:00;;;;;;;;;27.00;23.00;;;;;22.31;68.74;100560.50;5062614;28;45457;-63
2022/08/17 02:25:27;;;;;;;;;24.00;22.00;;;;;22.28;68.56;100564.38;5048365;28;45522;-63
2022/08/17 02:27:52;;;;;;;;;22.75;20.00;;;;;22.25;68.83;100564.69;5042483;28;45468;-63
2022/08/17 02:30:18;;;;;;;;;20.00;19.25;;;;;22.24;68.39;100564.88;5042326;28;45246;-63
2022/08/17 02:32:43;;;;;;;;;22.25;20.75;;;;;22.22;68.88;100558.84;5042594;28;45329;-63
2022/08/17 02:35:09;;;;;;;;;17.25;14.00;;;;;22.20;68.86;100558.19;5042727;28;45277;-63
2022/08/17 02:37:35;;;;;;;;;22.50;18.00;;;;;22.17;68.79;100558.50;5048764;28;45373;-63
2022/08/17 02:40:01;;;;;;;;;17.25;14.00;;;;;22.16;68.79;100573.78;5061037;28;45236;-62
2022/08/17 02:42:32;;;;;;;;;23.00;18.50;;;;;22.14;68.86;100577.66;5062414;28;45228;-62
2022/08/17 02:45:03;;;;;;;;;19.75;15.50;;;;;22.11;68.49;100584.16;5061001;28;45539;-62
2022/08/17 02:47:28;;;;;;;;;13.75;13.00;;;;;22.10;68.68;100587.84;5062507;28;45200;-62
2022/08/17 02:49:54;;;;;;;;;20.00;16.25;;;;;22.09;68.58;100591.56;5062042;28;45288;-63
2022/08/17 02:52:20;;;;;;;;;18.75;17.00;;;;;22.08;68.61;100586.34;5062261;28;45315;-63
2022/08/17 02:54:46;;;;;;;;;18.50;18.50;;;;;22.11;68.53;100594.06;5062290;28;45465;-63
2022/08/17 02:57:12;;;;;;;;;22.50;19.75;;;;;22.12;68.88;100582.31;5062011;28;46130;-62
2022/08/17 02:59:38;;;;;;;;;22.50;17.25;;;;;22.13;68.57;100589.38;5061991;28;45330;-63
2022/08/17 03:02:06;;;;;;;;;22.25;15.00;;;;;22.13;68.50;100589.38;5060762;28;45318;-63
2022/08/17 03:04:32;;;;;;;;;22.00;19.50;;;;;22.14;68.56;100588.38;5061950;28;45325;-63
2022/08/17 03:06:58;;;;;;;;;19.25;15.00;;;;;22.16;68.62;100578.31;5061849;28;46210;-63
2022/08/17 03:09:23;;;;;;;;;18.75;16.00;;;;;22.19;68.52;100564.53;5061863;28;45223;-63
2022/08/17 03:11:50;;;;;;;;;17.50;13.00;;;;;22.20;68.47;100564.38;5062037;28;45213;-63
2022/08/17 03:14:17;;;;;;;;;23.50;18.75;;;;;22.20;68.46;100560.88;5058715;28;45279;-63
2022/08/17 03:16:43;;;;;;;;;24.00;19.50;;;;;22.22;68.34;100562.38;5061821;28;45647;-63
2022/08/17 03:19:08;;;;;;;;;22.25;19.00;;;;;22.26;68.34;100554.78;5061728;28;45365;-63
2022/08/17 03:21:34;;;;;;;;;22.75;22.00;;;;;22.28;68.54;100553.63;5062011;28;45406;-63
2022/08/17 03:24:01;;;;;;;;;20.50;17.00;;;;;22.32;68.21;100548.75;5058553;28;45586;-63
2022/08/17 03:26:26;;;;;;;;;23.75;18.75;;;;;22.34;67.96;100554.78;5041828;28;45521;-63
2022/08/17 03:28:52;;;;;;;;;21.00;19.00;;;;;22.38;68.14;100549.91;5041683;28;45225;-63
2022/08/17 03:31:17;;;;;;;;;16.25;16.00;;;;;22.41;68.14;100546.88;5041613;28;45268;-62
2022/08/17 03:33:43;;;;;;;;;18.00;18.00;;;;;22.42;68.15;100546.69;5041478;28;45438;-63
2022/08/17 03:36:09;;;;;;;;;16.50;15.50;;;;;22.43;68.15;100545.69;5041420;28;45452;-63
2022/08/17 03:38:34;;;;;;;;;17.25;15.75;;;;;22.47;68.04;100538.13;5041148;28;45356;-63
2022/08/17 03:40:59;;;;;;;;;16.75;16.50;;;;;22.48;68.27;100523.72;5041464;28;45344;-63
2022/08/17 03:43:31;;;;;;;;;21.00;17.25;;;;;22.47;68.32;100528.25;5041310;28;45551;-63
2022/08/17 03:57:06;;;;;;;;;20.00;18.50;;;;;22.41;67.75;100542.34;5060639;28;45818;-63
2022/08/17 03:59:33;;;;;;;;;21.50;21.00;;;;;22.40;67.82;100539.84;5061064;28;45248;-63
2022/08/17 04:02:08;;;;;;;;;21.00;19.00;;;;;22.38;68.04;100544.56;5061167;28;45271;-63
2022/08/17 04:04:34;;;;;;;;;18.25;18.25;;;;;22.37;68.43;100550.94;5061118;28;45484;-62
2022/08/17 04:07:00;;;;;;;;;28.50;22.00;;;;;22.39;68.59;100562.31;5060879;28;45423;-63
2022/08/17 04:09:25;;;;;;;;;24.50;21.75;;;;;22.38;68.38;100560.66;5061084;28;45363;-63
2022/08/17 04:11:52;;;;;;;;;28.25;25.50;;;;;22.38;68.46;100566.84;5061217;28;45394;-63
2022/08/17 04:14:17;;;;;;;;;23.75;21.25;;;;;22.40;68.22;100567.50;5060956;28;45589;-63
2022/08/17 04:16:43;;;;;;;;;25.75;22.50;;;;;22.43;68.33;100566.31;5060790;28;45917;-62
2022/08/17 04:19:08;;;;;;;;;24.75;24.00;;;;;22.45;68.51;100567.00;5060925;28;45409;-63
2022/08/17 04:21:34;;;;;;;;;27.25;22.25;;;;;22.44;68.47;100573.41;5061029;28;45420;-63
2022/08/17 04:23:59;;;;;;;;;41.50;32.00;;;;;22.42;68.65;100562.81;5059024;28;45272;-63
2022/08/17 04:26:26;;;;;;;;;36.75;27.50;;;;;22.40;68.90;100572.03;5040528;28;45220;-63
2022/08/17 04:28:52;;;;;;;;;31.50;26.25;;;;;22.40;69.02;100569.38;5040619;28;45254;-63
2022/08/17 04:31:17;;;;;;;;;23.75;20.75;;;;;22.43;68.90;100575.22;5040715;28;45430;-63
2022/08/17 04:33:43;;;;;;;;;25.00;22.00;;;;;22.44;68.92;100576.06;5055408;28;45225;-64
2022/08/17 04:36:11;;;;;;;;;26.50;24.75;;;;;22.42;69.08;100572.69;5060542;28;45349;-63
2022/08/17 04:38:38;;;;;;;;;23.00;19.25;;;;;22.41;69.06;100585.28;5060397;28;45319;-63
2022/08/17 04:43:53;;;;;;;;;19.75;17.00;;;;;22.37;68.58;100570.56;5060730;28;45332;-63
2022/08/17 04:46:22;;;;;;;;;19.75;15.75;;;;;22.36;68.68;100568.88;5060394;28;46118;-63
2022/08/17 04:48:51;;;;;;;;;22.75;19.25;;;;;22.37;68.36;100565.19;5060232;28;45278;-63
2022/08/17 04:51:22;;;;;;;;;21.00;16.25;;;;;22.37;68.75;100569.72;5060831;28;45244;-63
2022/08/17 04:53:51;;;;;;;;;19.00;16.00;;;;;22.34;68.12;100565.50;5060090;28;45301;-63
2022/08/17 04:56:17;;;;;;;;;19.25;17.00;;;;;22.32;68.04;100575.59;5060156;28;45514;-63
2022/08/17 04:58:46;;;;;;;;;19.25;18.25;;;;;22.32;67.94;100566.69;5060499;28;45164;-63
2022/08/17 05:01:12;;;;;;;;;22.75;18.25;;;;;22.33;67.86;100560.31;5060199;28;45390;-63
2022/08/17 05:03:38;;;;;;;;;29.25;22.50;;;;;22.33;67.73;100557.63;5060528;28;45331;-64
2022/08/17 05:06:04;;;;;;;;;18.00;17.75;;;;;22.32;67.86;100553.28;5060332;28;46198;-63
2022/08/17 05:08:29;;;;;;;;;18.75;15.50;;;;;22.35;67.82;100552.94;5061825;28;45418;-63
2022/08/17 05:10:55;;;;;;;;;23.00;17.25;;;;;22.34;67.82;100556.63;5063643;28;45300;-63
2022/08/17 05:13:26;;;;;;;;;18.25;18.25;;;;;22.33;67.55;100550.41;5063846;28;45442;-63
2022/08/17 05:15:55;;;;;;;;;26.25;19.50;;;;;22.34;67.84;100545.88;5063324;28;45509;-63
2022/08/17 05:18:21;;;;;;;;;19.25;17.00;;;;;22.37;67.58;100537.50;5063714;28;45209;-63
2022/08/17 05:20:46;;;;;;;;;25.00;19.00;;;;;22.37;67.56;100543.72;5060059;28;45213;-63
2022/08/17 05:23:18;;;;;;;;;17.00;16.00;;;;;22.39;67.77;100541.69;5063543;28;45286;-63
2022/08/17 05:25:49;;;;;;;;;19.75;17.50;;;;;22.41;67.33;100553.09;5047541;28;45442;-63
2022/08/17 05:28:17;;;;;;;;;19.50;17.25;;;;;22.41;67.65;100562.97;5043529;28;45346;-63
2022/08/17 05:30:43;;;;;;;;;23.50;18.75;;;;;22.40;67.59;100558.63;5043185;28;45311;-63
2022/08/17 05:33:21;;;;;;;;;19.00;18.00;;;;;22.41;67.85;100553.09;5043490;28;45303;-63
2022/08/17 05:35:49;;;;;;;;;18.25;18.25;;;;;22.42;67.62;100546.69;5043020;28;45332;-63
2022/08/17 05:38:17;;;;;;;;;20.00;17.75;;;;;22.43;67.69;100550.22;5043169;28;45400;-63
2022/08/17 05:40:43;;;;;;;;;24.00;22.75;;;;;22.45;67.61;100558.97;5043292;28;45248;-64
2022/08/17 05:43:15;;;;;;;;;26.00;21.25;;;;;22.44;67.50;100555.44;5043150;28;45312;-63
2022/08/17 05:46:03;;;;;;;;;25.00;21.00;;;;;22.44;67.37;100557.28;5042822;28;45353;-63
2022/08/17 05:48:41;;;;;;;;;22.00;19.00;;;;;22.43;67.41;100548.38;5045680;28;45375;-63
2022/08/17 05:51:36;;;;;;;;;28.50;23.50;;;;;22.44;67.50;100550.06;5063261;28;45240;-63
2022/08/17 05:54:20;;;;;;;;;21.00;20.25;;;;;22.46;67.14;100558.78;5045152;28;45497;-63
2022/08/17 05:56:54;;;;;;;;;22.50;20.75;;;;;22.48;67.37;100554.06;5062965;28;46361;-63
2022/08/17 05:59:39;;;;;;;;;26.25;19.50;;;;;22.53;67.65;100551.72;5063222;28;45316;-63
2022/08/17 06:02:26;;;;;;;;;17.00;16.25;;;;;22.64;67.12;100544.28;5063143;28;45480;-63
2022/08/17 06:05:15;;;;;;;;;26.50;23.25;;;;;22.75;67.23;100538.53;5062947;28;45494;-63
2022/08/17 06:07:56;;;;;;;;;28.00;25.50;;;;;22.84;67.16;100534.81;5062560;28;45354;-63
2022/08/17 06:10:24;;;;;;;;;20.75;20.75;;;;;22.86;66.88;100531.97;5062934;28;45234;-63
2022/08/17 06:13:16;;;;;;;;;25.50;23.00;;;;;22.90;66.82;100534.13;5062907;28;45296;-63
2022/08/17 06:16:11;;;;;;;;;22.00;22.00;;;;;22.94;66.70;100529.25;5057950;28;45290;-63
2022/08/17 06:18:44;;;;;;;;;21.75;19.50;;;;;;;;5062456;28;45314;-63
2022/08/17 06:21:14;;;;;;;;;26.50;25.00;;;;;22.92;66.14;100531.28;5062673;28;45299;-63
2022/08/17 06:23:46;;;;;;;;;25.50;21.25;;;;;22.87;66.17;100539.00;5062182;28;45404;-64
2022/08/17 06:26:25;;;;;;;;;34.50;28.50;;;;;22.88;66.35;100544.22;5042763;28;45247;-63
2022/08/17 06:29:01;;;;;;;;;23.50;23.00;;;;;22.91;66.58;100551.06;5042177;28;46239;-63
2022/08/17 06:31:31;;;;;;;;;25.00;22.75;;;;;22.93;66.39;100570.56;5042309;28;45361;-63
2022/08/17 06:33:59;;;;;;;;;28.75;27.25;;;;;22.92;66.38;100583.16;5042378;28;45317;-63
2022/08/17 06:36:39;;;;;;;;;24.50;21.50;;;;;22.89;66.28;100593.38;5042755;28;45370;-63
2022/08/17 06:39:32;;;;;;;;;22.50;20.50;;;;;22.87;66.58;100595.41;5042176;28;45353;-63
2022/08/17 06:42:46;;;;;;;;;18.00;18.00;;;;;22.80;66.48;100601.44;5042000;28;45256;-64
2022/08/17 06:45:29;;;;;;;;;28.75;23.75;;;;;22.81;66.54;100603.13;5042195;28;45351;-63
2022/08/17 06:47:55;;;;;;;;;25.00;22.00;;;;;22.80;66.62;100606.00;5042364;28;45412;-63
2022/08/17 06:50:34;;;;;;;;;25.00;24.00;;;;;22.84;66.44;100610.84;5060140;28;45424;-63
2022/08/17 06:53:21;;;;;;;;;27.75;20.75;;;;;22.86;66.49;100615.25;5061970;28;45363;-63
2022/08/17 06:56:00;;;;;;;;;27.00;23.50;;;;;22.81;66.14;100608.50;5062120;28;45235;-63
2022/08/17 06:58:30;;;;;;;;;22.00;20.50;;;;;22.79;66.53;100602.47;5062298;28;45541;-63
2022/08/17 07:01:00;;;;;;;;;21.00;18.25;;;;;22.79;66.02;100604.31;5057145;28;47431;-63
2022/08/17 07:03:53;;;;;;;;;26.75;22.75;;;;;22.79;66.04;100601.63;5059530;28;45308;-63
2022/08/17 07:06:22;;;;;;;;;24.25;20.25;;;;;22.81;66.54;100611.19;5061993;28;45177;-63
2022/08/17 07:08:48;;;;;;;;;20.00;20.00;;;;;22.85;66.33;100606.34;5061935;28;45363;-63
2022/08/17 07:11:18;;;;;;;;;21.50;20.50;;;;;22.87;66.07;100603.47;5061640;28;46070;-63
2022/08/17 07:14:04;;;;;;;;;25.25;22.00;;;;;22.89;65.99;100613.03;5061923;28;45457;-63
2022/08/17 07:16:38;;;;;;;;;25.25;22.50;;;;;22.90;66.02;100620.06;5061652;28;45383;-63
2022/08/17 07:19:06;;;;;;;;;22.50;21.50;;;;;22.89;65.86;100625.63;5061989;28;45363;-63
2022/08/17 07:21:50;;;;;;;;;20.75;18.50;;;;;22.86;65.69;100629.50;5061652;28;45322;-63
2022/08/17 07:24:31;;;;;;;;;23.00;22.25;;;;;22.82;66.04;100636.19;5058086;28;45323;-63
2022/08/17 07:27:21;;;;;;;;;30.00;22.75;;;;;22.83;65.78;100643.25;5041655;28;45228;-63
2022/08/17 07:29:55;;;;;;;;;28.00;24.50;;;;;22.83;65.85;100651.31;5050537;28;45486;-63
2022/08/17 07:32:32;;;;;;;;;25.75;22.75;;;;;22.83;66.21;100659.38;5060800;27;45462;-63
2022/08/17 07:35:40;;;;;;;;;26.00;21.00;;;;;22.85;65.98;100662.75;5061656;28;45305;-63
2022/08/17 07:38:16;;;;;;;;;24.75;22.50;;;;;22.89;65.95;100680.19;5060625;28;45279;-64
2022/08/17 07:40:46;;;;;;;;;25.50;22.50;;;;;22.89;66.04;100674.81;5056882;28;45485;-63
2022/08/17 07:43:17;;;;;;;;;21.75;19.25;;;;;22.91;65.93;100693.44;5053680;28;45461;-63
2022/08/17 07:49:08;;;;;;;;;25.75;21.75;;;;;22.92;65.70;100692.47;5049198;28;45504;-62
2022/08/17 07:51:38;;;;;;;;;25.50;22.00;;;;;22.90;65.46;100694.44;5061085;28;45257;-63
2022/08/17 07:54:32;;;;;;;;;24.00;18.75;;;;;22.87;65.51;100697.50;5061054;28;46076;-63
2022/08/17 07:57:11;;;;;;;;;18.50;18.50;;;;;22.82;65.30;100692.59;5069783;28;45306;-63
2022/08/17 08:00:08;;;;;;;;;20.00;18.50;;;;;22.82;65.52;100696.13;5061367;28;45233;-63
2022/08/17 08:02:40;;;;;;;;;21.00;20.00;;;;;22.86;65.61;100704.72;5060330;28;45884;-63
2022/08/17 08:05:27;;;;;;;;;23.75;22.25;;;;;22.87;65.32;100702.88;5061100;28;46315;-63
2022/08/17 08:07:55;;;;;;;;;22.00;21.75;;;;;22.81;65.49;100713.25;5060910;28;45303;-63
2022/08/17 08:10:40;;;;;;;;;19.25;17.25;;;;;22.79;65.59;100706.38;5061328;28;45300;-63
2022/08/17 08:13:20;;;;;;;;;17.50;15.25;;;;;22.75;65.56;100702.34;5061014;28;45455;-63
2022/08/17 08:15:52;;;;;;;;;18.75;17.25;;;;;22.75;65.56;100710.41;5060611;28;46138;-63
2022/08/17 08:18:23;;;;;;;;;19.50;18.50;;;;;22.69;65.60;100714.63;5060901;28;45376;-63
2022/08/17 08:21:00;;;;;;;;;19.25;16.00;;;;;22.65;65.59;100720.50;5060958;28;45442;-63
2022/08/17 08:23:34;;;;;;;;;16.00;16.00;;;;;22.62;65.62;100713.63;5060769;28;45276;-63
2022/08/17 08:26:25;;;;;;;;;19.00;15.25;;;;;22.60;65.67;100717.50;5042006;28;45281;-63
2022/08/17 08:29:12;;;;;;;;;20.50;19.75;;;;;22.58;66.05;100731.91;5040444;28;45252;-63
2022/08/17 08:31:57;;;;;;;;;19.25;19.00;;;;;22.57;66.15;100726.69;5050704;28;45189;-63
2022/08/17 08:34:29;;;;;;;;;20.25;19.25;;;;;22.57;66.17;100737.44;5061101;28;45174;-63
2022/08/17 08:36:58;;;;;;;;;25.00;18.25;;;;;22.57;66.43;100737.44;5060325;28;45544;-63
2022/08/17 08:39:49;;;;;;;;;23.25;19.00;;;;;22.58;66.43;100731.06;5060911;28;45207;-63
2022/08/17 08:42:23;;;;;;;;;18.25;15.25;;;;;22.56;66.84;100723.19;5057060;28;45243;-63
2022/08/17 08:45:27;;;;;;;;;21.00;17.50;;;;;22.54;66.98;100717.16;5057649;28;45375;-63
2022/08/17 08:47:52;;;;;;;;;23.00;20.75;;;;;22.55;66.92;100721.50;5032453;28;45494;-63
2022/08/17 08:50:46;;;;;;;;;24.25;19.50;;;;;22.58;66.74;100709.59;5062550;28;45404;-63
2022/08/17 08:53:20;;;;;;;;;22.50;21.50;;;;;22.61;66.75;100725.38;5063948;28;45528;-62
2022/08/17 08:56:17;;;;;;;;;23.75;20.00;;;;;22.65;66.78;100725.84;5064099;28;45334;-63
2022/08/17 08:59:00;;;;;;;;;20.75;19.75;;;;;22.71;66.66;100727.88;5049510;28;45514;-62
2022/08/17 09:02:03;;;;;;;;;19.00;17.75;;;;;22.73;67.01;100725.84;5063639;28;45277;-62
2022/08/17 09:04:43;;;;;;;;;22.50;20.25;;;;;22.77;67.03;100719.16;5063951;28;45446;-63
2022/08/17 09:07:30;;;;;;;;;20.75;19.25;;;;;22.84;67.00;100737.09;5063607;28;45382;-62
2022/08/17 09:10:11;;;;;;;;;18.00;18.00;;;;;22.89;66.86;100733.06;5063560;28;46440;-63
2022/08/17 09:13:09;;;;;;;;;25.25;18.00;;;;;22.91;67.08;100721.16;5063665;28;45324;-63
2022/08/17 09:15:56;;;;;;;;;26.75;26.25;;;;;22.90;66.60;100724.84;5059020;28;45420;-62
2022/08/17 09:18:40;;;;;;;;;23.75;18.25;;;;;22.91;66.67;100729.22;5052248;28;45172;-63
2022/08/17 09:21:09;;;;;;;;;23.00;20.50;;;;;22.90;66.98;100724.00;5063399;28;45992;-63
2022/08/17 09:23:45;;;;;;;;;20.75;20.50;;;;;22.88;66.50;100723.34;5063261;28;45487;-62
2022/08/17 09:26:23;;;;;;;;;19.75;19.50;;;;;22.88;66.69;100721.50;5043743;28;45382;-63
2022/08/17 09:28:57;;;;;;;;;20.50;18.00;;;;;22.88;67.19;100720.66;5043379;28;45304;-63
2022/08/17 09:31:34;;;;;;;;;25.50;24.50;;;;;22.86;66.38;100720.84;5043177;28;45478;-63
2022/08/17 09:34:05;;;;;;;;;20.25;20.00;;;;;22.84;66.51;100728.19;5043023;28;45273;-62
2022/08/17 09:36:40;;;;;;;;;23.50;22.50;;;;;22.81;66.42;100726.66;5042700;28;45328;-62
2022/08/17 09:39:14;;;;;;;;;22.25;22.00;;;;;22.81;66.56;100723.16;5043214;28;45671;-62
2022/08/17 09:41:57;;;;;;;;;27.50;21.25;;;;;22.80;66.30;100719.63;5043016;28;45439;-63
2022/08/17 09:45:06;;;;;;;;;33.75;24.50;;;;;22.80;66.28;100722.31;5043253;28;45334;-63
2022/08/17 09:47:45;;;;;;;;;22.75;21.75;;;;;22.79;66.01;100715.25;5051927;28;45359;-63
2022/08/17 09:50:23;;;;;;;;;27.75;23.00;;;;;22.82;66.47;100719.44;5063026;28;45798;-63
2022/08/17 09:52:55;;;;;;;;;26.75;26.50;;;;;22.83;66.09;100722.00;5062947;28;46610;-63
2022/08/17 09:55:42;;;;;;;;;22.00;22.00;;;;;22.87;66.38;100733.25;5062253;28;45241;-63
2022/08/17 09:58:29;;;;;;;;;25.75;25.75;;;;;22.87;66.23;100733.25;5063109;28;45228;-63
2022/08/17 10:01:07;;;;;;;;;27.25;23.25;;;;;22.91;66.24;100750.72;5062869;28;45352;-63
2022/08/17 10:04:04;;;;;;;;;29.50;23.00;;;;;22.91;66.02;100744.47;5062917;28;46134;-62
2022/08/17 10:06:40;;;;;;;;;28.75;25.00;;;;;22.91;65.99;100747.16;5062536;28;45263;-63
2022/08/17 10:09:43;;;;;;;;;27.50;25.25;;;;;22.94;66.08;100760.28;5063039;28;45298;-62
2022/08/17 10:12:16;;;;;;;;;25.50;23.00;;;;;22.99;66.07;100757.94;5063107;28;45301;-63
2022/08/17 10:14:56;;;;;;;;;25.25;23.00;;;;;23.03;66.24;100775.38;5062418;28;45432;-63
2022/08/17 10:17:31;;;;;;;;;27.25;24.25;;;;;23.05;66.05;100776.03;5062623;28;45250;-63
2022/08/17 10:20:09;;;;;;;;;30.50;24.25;;;;;23.08;66.52;100767.63;5062971;28;45426;-63
2022/08/17 10:28:20;;;;;;;;;24.75;24.75;;;;;23.20;65.82;100766.25;5042479;28;45220;-63
2022/08/17 10:30:53;;;;;;;;;25.00;25.00;;;;;23.20;66.13;100771.63;5042384;28;45370;-63
2022/08/17 10:33:26;;;;;;;;;25.00;21.25;;;;;23.23;65.96;100767.78;5042456;28;45323;-63
2022/08/17 10:36:01;;;;;;;;;23.00;21.50;;;;;23.28;65.74;100768.91;5042117;28;45435;-63
2022/08/17 10:38:36;;;;;;;;;21.25;21.25;;;;;23.34;65.46;100767.38;5041784;28;45347;-62
2022/08/17 10:41:26;;;;;;;;;29.25;25.75;;;;;23.36;65.06;100758.13;5042262;28;45376;-65
2022/08/17 10:44:45;;;;;;;;;20.00;16.75;;;;;23.45;65.09;100760.78;5041585;28;45815;-62
2022/08/17 10:47:14;;;;;;;;;24.00;22.25;;;;;23.49;64.51;100754.91;5041512;28;45374;-63
2022/08/17 10:49:46;;;;;;;;;24.00;21.50;;;;;23.52;64.36;100741.09;5054622;28;45231;-62
2022/08/17 10:52:28;;;;;;;;;29.50;25.00;;;;;23.52;64.15;100734.88;5060746;28;45406;-63
2022/08/17 10:54:55;;;;;;;;;28.25;23.75;;;;;23.53;64.48;100740.06;5062183;28;45473;-63
2022/08/17 10:57:32;;;;;;;;;23.25;21.25;;;;;23.54;63.99;100741.78;5062034;28;45357;-62
2022/08/17 11:00:09;;;;;;;;;23.75;21.50;;;;;23.53;64.39;100750.00;5061697;28;46349;-62
2022/08/17 11:02:52;;;;;;;;;28.50;27.50;;;;;23.51;64.06;100755.56;5061996;28;45465;-63
2022/08/17 11:05:52;;;;;;;;;23.25;22.50;;;;;23.53;63.65;100753.53;5060924;28;45375;-62
2022/08/17 11:08:24;;;;;;;;;29.25;25.50;;;;;23.56;63.98;100755.03;5061458;28;46465;-62
2022/08/17 11:11:22;;;;;;;;;24.25;24.25;;;;;23.58;63.73;100753.84;5061765;28;45387;-62
2022/08/17 11:14:06;;;;;;;;;26.50;24.00;;;;;23.63;63.85;100759.59;5061797;28;45318;-62
2022/08/17 11:17:07;;;;;;;;;27.25;25.25;;;;;23.67;63.42;100762.75;5061716;28;45276;-63
2022/08/17 11:19:48;;;;;;;;;33.00;30.00;;;;;23.74;63.83;100762.88;5061433;28;45429;-62
2022/08/17 11:22:32;;;;;;;;;29.00;27.50;;;;;23.77;63.86;100749.06;5061458;28;45358;-62
2022/08/17 11:25:30;;;;;;;;;34.00;29.00;;;;;23.82;64.00;100746.69;5051188;28;45378;-62
2022/08/17 11:28:07;;;;;;;;;29.25;26.25;;;;;23.93;63.65;100749.81;5048831;28;45319;-62
2022/08/17 11:31:08;;;;;;;;;27.75;24.50;;;;;24.05;63.61;100742.19;5061081;28;46162;-62
2022/08/17 11:33:33;;;;;;;;;32.25;27.75;;;;;24.15;63.53;100739.25;5047866;28;45248;-62
2022/08/17 11:36:44;;;;;;;;;36.25;31.25;;;;;24.16;63.27;100741.75;5061575;28;45281;-62
2022/08/17 11:39:15;;;;;;;;;34.25;29.25;;;;;24.18;62.84;100744.28;5019201;28;45413;-63
2022/08/17 11:42:05;;;;;;;;;30.75;26.50;;;;;24.21;62.56;100749.31;5019050;28;45520;-63
2022/08/17 11:44:39;;;;;;;;;32.75;29.25;;;;;24.23;62.41;100748.09;5044891;28;45381;-63
2022/08/17 11:53:37;;;;;;;;;32.00;29.25;;;;;24.92;62.67;100752.59;5060712;28;45343;-63
2022/08/17 11:56:27;;;;;;;;;35.00;31.00;;;;;25.11;61.82;100746.69;5061051;28;45297;-62
2022/08/17 11:58:53;;;;;;;;;35.50;30.25;;;;;25.25;61.39;100753.13;5061461;28;45507;-62
2022/08/17 12:01:21;;;;;;;;;38.25;30.75;;;;;25.27;61.46;100761.84;5060747;28;45652;-62
2022/08/17 12:03:57;;;;;;;;;36.50;32.00;;;;;25.26;60.83;100752.09;5060792;28;45279;-62
2022/08/17 12:06:29;;;;;;;;;32.25;29.00;;;;;25.28;60.60;100756.28;5059462;28;45295;-62
2022/08/17 12:09:12;;;;;;;;;36.75;30.00;;;;;25.25;60.72;100761.19;5060944;28;45433;-62
2022/08/17 12:11:54;;;;;;;;;36.25;30.00;;;;;25.17;60.71;100770.22;5060920;28;45423;-63